sensor_id;sensor_type;location;lat;lon;timestamp;temperature;humidity
15298;DHT22;7750;48.796;9.026;2022-11-20T00:05:54;9.90;78.90
15298;DHT22;7750;48.796;9.026;2022-11-20T00:11:11;9.90;78.90
15298;DHT22;7750;48.796;9.026;2022-11-20T00:16:14;9.80;79.00
15298;DHT22;7750;48.796;9.026;2022-11-20T00:21:21;9.80;79.10
15298;DHT22;7750;48.796;9.026;2022-11-20T00:26:24;9.80;79.10
15298;DHT22;7750;48.796;9.026;2022-11-20T00:31:25;9.80;79.00
15298;DHT22;7750;48.796;9.026;2022-11-20T00:36:27;9.70;78.70
15298;DHT22;7750;48.796;9.026;2022-11-20T00:41:29;9.70;78.80
15298;DHT22;7750;48.796;9.026;2022-11-20T00:46:30;9.70;78.60
15298;DHT22;7750;48.796;9.026;2022-11-20T00:51:30;9.60;78.50
15298;DHT22;7750;48.796;9.026;2022-11-20T00:56:31;9.60;78.60
15298;DHT22;7750;48.796;9.026;2022-11-20T01:01:31;9.60;78.50
15298;DHT22;7750;48.796;9.026;2022-11-20T01:06:34;9.50;78.40
15298;DHT22;7750;48.796;9.026;2022-11-20T01:11:38;9.50;78.40
15298;DHT22;7750;48.796;9.026;2022-11-20T01:16:41;9.50;78.50
15298;DHT22;7750;48.796;9.026;2022-11-20T01:21:43;9.40;78.50
15298;DHT22;7750;48.796;9.026;2022-11-20T01:26:46;9.40;78.20
15298;DHT22;7750;48.796;9.026;2022-11-20T01:31:47;9.40;78.00
15298;DHT22;7750;48.796;9.026;2022-11-20T01:36:48;9.50;77.70
15298;DHT22;7750;48.796;9.026;2022-11-20T01:41:50;9.50;77.20
15298;DHT22;7750;48.796;9.026;2022-11-20T01:47:14;9.50;77.30
15298;DHT22;7750;48.796;9.026;2022-11-20T01:52:27;9.50;77.10
15298;DHT22;7750;48.796;9.026;2022-11-20T01:57:29;9.50;76.90
15298;DHT22;7750;48.796;9.026;2022-11-20T02:02:32;9.50;76.80
15298;DHT22;7750;48.796;9.026;2022-11-20T02:07:32;9.40;76.70
15298;DHT22;7750;48.796;9.026;2022-11-20T02:12:33;9.40;77.00
15298;DHT22;7750;48.796;9.026;2022-11-20T02:17:53;9.40;77.20
15298;DHT22;7750;48.796;9.026;2022-11-20T02:23:02;9.40;77.30
15298;DHT22;7750;48.796;9.026;2022-11-20T02:28:05;9.40;77.20
15298;DHT22;7750;48.796;9.026;2022-11-20T02:33:06;9.40;77.30
15298;DHT22;7750;48.796;9.026;2022-11-20T02:38:07;9.40;77.40
15298;DHT22;7750;48.796;9.026;2022-11-20T02:43:08;9.40;77.10
15298;DHT22;7750;48.796;9.026;2022-11-20T02:48:08;9.40;76.90
15298;DHT22;7750;48.796;9.026;2022-11-20T02:53:09;9.40;77.20
15298;DHT22;7750;48.796;9.026;2022-11-20T02:58:10;9.40;77.20
15298;DHT22;7750;48.796;9.026;2022-11-20T03:03:10;9.40;77.10
15298;DHT22;7750;48.796;9.026;2022-11-20T03:08:11;9.40;77.20
15298;DHT22;7750;48.796;9.026;2022-11-20T03:13:12;9.40;77.50
15298;DHT22;7750;48.796;9.026;2022-11-20T03:18:12;9.40;77.50
15298;DHT22;7750;48.796;9.026;2022-11-20T03:23:14;9.40;77.40
15298;DHT22;7750;48.796;9.026;2022-11-20T03:28:14;9.40;77.30
15298;DHT22;7750;48.796;9.026;2022-11-20T03:33:15;9.30;77.20
15298;DHT22;7750;48.796;9.026;2022-11-20T03:38:15;9.20;77.30
15298;DHT22;7750;48.796;9.026;2022-11-20T03:43:16;9.20;77.40
15298;DHT22;7750;48.796;9.026;2022-11-20T03:48:16;9.10;77.50
15298;DHT22;7750;48.796;9.026;2022-11-20T03:53:19;9.10;77.60
15298;DHT22;7750;48.796;9.026;2022-11-20T03:58:20;9.00;77.50
15298;DHT22;7750;48.796;9.026;2022-11-20T04:03:20;9.00;77.50
15298;DHT22;7750;48.796;9.026;2022-11-20T04:08:21;8.90;77.60
15298;DHT22;7750;48.796;9.026;2022-11-20T04:13:21;8.90;77.70
15298;DHT22;7750;48.796;9.026;2022-11-20T04:18:22;8.80;77.70
15298;DHT22;7750;48.796;9.026;2022-11-20T04:23:23;8.80;77.80
15298;DHT22;7750;48.796;9.026;2022-11-20T04:28:23;8.80;77.90
15298;DHT22;7750;48.796;9.026;2022-11-20T04:33:24;8.70;78.10
15298;DHT22;7750;48.796;9.026;2022-11-20T04:38:25;8.70;78.20
15298;DHT22;7750;48.796;9.026;2022-11-20T04:43:25;8.70;78.30
15298;DHT22;7750;48.796;9.026;2022-11-20T04:48:27;8.70;78.40
15298;DHT22;7750;48.796;9.026;2022-11-20T04:53:28;8.70;78.50
15298;DHT22;7750;48.796;9.026;2022-11-20T04:58:28;8.70;78.60
15298;DHT22;7750;48.796;9.026;2022-11-20T05:03:29;8.80;78.70
15298;DHT22;7750;48.796;9.026;2022-11-20T05:08:31;8.80;78.80
15298;DHT22;7750;48.796;9.026;2022-11-20T05:13:32;8.80;78.70
15298;DHT22;7750;48.796;9.026;2022-11-20T05:18:33;8.80;78.70
15298;DHT22;7750;48.796;9.026;2022-11-20T05:23:35;8.90;78.90
15298;DHT22;7750;48.796;9.026;2022-11-20T05:28:35;8.90;78.90
15298;DHT22;7750;48.796;9.026;2022-11-20T05:33:39;8.90;78.80
15298;DHT22;7750;48.796;9.026;2022-11-20T05:38:40;8.90;78.90
15298;DHT22;7750;48.796;9.026;2022-11-20T05:43:43;8.90;78.90
15298;DHT22;7750;48.796;9.026;2022-11-20T05:48:45;8.90;79.00
15298;DHT22;7750;48.796;9.026;2022-11-20T05:53:46;8.90;79.50
15298;DHT22;7750;48.796;9.026;2022-11-20T05:58:47;9.00;79.00
15298;DHT22;7750;48.796;9.026;2022-11-20T06:03:48;8.90;79.00
15298;DHT22;7750;48.796;9.026;2022-11-20T06:08:52;8.90;79.20
15298;DHT22;7750;48.796;9.026;2022-11-20T06:13:53;9.00;79.20
15298;DHT22;7750;48.796;9.026;2022-11-20T06:18:54;9.00;79.30
15298;DHT22;7750;48.796;9.026;2022-11-20T06:23:55;9.00;79.20
15298;DHT22;7750;48.796;9.026;2022-11-20T06:28:55;9.00;80.10
15298;DHT22;7750;48.796;9.026;2022-11-20T06:33:56;9.10;79.40
15298;DHT22;7750;48.796;9.026;2022-11-20T06:39:00;9.10;79.40
15298;DHT22;7750;48.796;9.026;2022-11-20T06:44:04;9.10;79.30
15298;DHT22;7750;48.796;9.026;2022-11-20T06:49:06;9.10;79.40
15298;DHT22;7750;48.796;9.026;2022-11-20T06:54:06;9.10;79.40
15298;DHT22;7750;48.796;9.026;2022-11-20T06:59:07;9.10;79.30
15298;DHT22;7750;48.796;9.026;2022-11-20T07:04:08;9.20;79.40
15298;DHT22;7750;48.796;9.026;2022-11-20T07:09:09;9.20;79.40
15298;DHT22;7750;48.796;9.026;2022-11-20T07:14:10;9.20;79.40
15298;DHT22;7750;48.796;9.026;2022-11-20T07:19:10;9.20;79.20
15298;DHT22;7750;48.796;9.026;2022-11-20T07:24:11;9.30;79.30
15298;DHT22;7750;48.796;9.026;2022-11-20T07:29:12;9.20;79.30
15298;DHT22;7750;48.796;9.026;2022-11-20T07:34:13;9.30;79.20
15298;DHT22;7750;48.796;9.026;2022-11-20T07:39:13;9.30;79.30
15298;DHT22;7750;48.796;9.026;2022-11-20T07:44:14;9.30;79.40
15298;DHT22;7750;48.796;9.026;2022-11-20T07:49:15;9.30;79.40
15298;DHT22;7750;48.796;9.026;2022-11-20T07:54:15;9.40;79.50
15298;DHT22;7750;48.796;9.026;2022-11-20T07:59:16;9.50;79.40
15298;DHT22;7750;48.796;9.026;2022-11-20T08:04:17;9.50;79.40
15298;DHT22;7750;48.796;9.026;2022-11-20T08:09:18;9.50;79.20
15298;DHT22;7750;48.796;9.026;2022-11-20T08:14:18;9.60;79.10
15298;DHT22;7750;48.796;9.026;2022-11-20T08:19:19;9.60;79.20
15298;DHT22;7750;48.796;9.026;2022-11-20T08:24:20;9.70;79.00
15298;DHT22;7750;48.796;9.026;2022-11-20T08:29:23;9.70;78.90
15298;DHT22;7750;48.796;9.026;2022-11-20T08:34:24;9.70;79.60
15298;DHT22;7750;48.796;9.026;2022-11-20T08:39:25;9.70;79.00
15298;DHT22;7750;48.796;9.026;2022-11-20T08:44:26;9.80;78.90
15298;DHT22;7750;48.796;9.026;2022-11-20T08:49:26;9.80;78.80
15298;DHT22;7750;48.796;9.026;2022-11-20T08:54:27;10.00;78.80
15298;DHT22;7750;48.796;9.026;2022-11-20T08:59:27;10.10;78.40
15298;DHT22;7750;48.796;9.026;2022-11-20T09:04:28;10.10;78.50
15298;DHT22;7750;48.796;9.026;2022-11-20T09:09:29;10.10;78.30
15298;DHT22;7750;48.796;9.026;2022-11-20T09:14:30;10.20;78.50
15298;DHT22;7750;48.796;9.026;2022-11-20T09:19:30;10.20;78.40
15298;DHT22;7750;48.796;9.026;2022-11-20T09:24:31;10.20;78.80
15298;DHT22;7750;48.796;9.026;2022-11-20T09:29:35;10.20;79.00
15298;DHT22;7750;48.796;9.026;2022-11-20T09:34:35;10.20;78.90
15298;DHT22;7750;48.796;9.026;2022-11-20T09:39:36;10.30;78.90
15298;DHT22;7750;48.796;9.026;2022-11-20T09:56:20;10.30;78.20
15298;DHT22;7750;48.796;9.026;2022-11-20T10:01:24;10.20;78.20
15298;DHT22;7750;48.796;9.026;2022-11-20T10:06:37;10.20;78.00
15298;DHT22;7750;48.796;9.026;2022-11-20T10:17:13;10.10;78.60
15298;DHT22;7750;48.796;9.026;2022-11-20T10:33:24;10.10;81.40
15298;DHT22;7750;48.796;9.026;2022-11-20T10:38:34;10.00;81.70
15298;DHT22;7750;48.796;9.026;2022-11-20T10:43:37;10.00;81.50
15298;DHT22;7750;48.796;9.026;2022-11-20T10:48:38;10.00;81.40
15298;DHT22;7750;48.796;9.026;2022-11-20T10:59:00;10.00;81.90
15298;DHT22;7750;48.796;9.026;2022-11-20T11:04:02;10.10;82.20
15298;DHT22;7750;48.796;9.026;2022-11-20T11:09:13;10.10;82.50
15298;DHT22;7750;48.796;9.026;2022-11-20T11:14:15;10.10;83.00
15298;DHT22;7750;48.796;9.026;2022-11-20T11:19:16;10.10;83.40
15298;DHT22;7750;48.796;9.026;2022-11-20T11:24:25;10.20;85.30
15298;DHT22;7750;48.796;9.026;2022-11-20T11:29:26;10.60;85.70
15298;DHT22;7750;48.796;9.026;2022-11-20T11:34:29;10.90;83.20
15298;DHT22;7750;48.796;9.026;2022-11-20T11:39:36;11.10;81.90
15298;DHT22;7750;48.796;9.026;2022-11-20T11:44:46;11.40;82.50
15298;DHT22;7750;48.796;9.026;2022-11-20T11:55:15;11.90;81.40
15298;DHT22;7750;48.796;9.026;2022-11-20T12:00:22;12.20;77.70
15298;DHT22;7750;48.796;9.026;2022-11-20T12:05:29;12.40;75.60
15298;DHT22;7750;48.796;9.026;2022-11-20T12:15:42;12.60;71.40
15298;DHT22;7750;48.796;9.026;2022-11-20T12:26:07;12.60;71.10
15298;DHT22;7750;48.796;9.026;2022-11-20T12:32:14;12.80;70.70
15298;DHT22;7750;48.796;9.026;2022-11-20T12:42:20;13.50;69.30
15298;DHT22;7750;48.796;9.026;2022-11-20T12:53:02;14.00;65.60
15298;DHT22;7750;48.796;9.026;2022-11-20T13:03:50;14.10;61.10
15298;DHT22;7750;48.796;9.026;2022-11-20T13:08:54;14.00;62.00
15298;DHT22;7750;48.796;9.026;2022-11-20T13:19:13;13.70;63.30
15298;DHT22;7750;48.796;9.026;2022-11-20T13:29:28;13.70;61.10
15298;DHT22;7750;48.796;9.026;2022-11-20T13:34:30;13.70;60.20
15298;DHT22;7750;48.796;9.026;2022-11-20T13:39:35;13.60;60.50
15298;DHT22;7750;48.796;9.026;2022-11-20T13:44:42;13.40;60.30
15298;DHT22;7750;48.796;9.026;2022-11-20T13:49:44;13.20;60.70
15298;DHT22;7750;48.796;9.026;2022-11-20T14:00:20;12.70;62.50
15298;DHT22;7750;48.796;9.026;2022-11-20T14:05:22;12.40;63.70
15298;DHT22;7750;48.796;9.026;2022-11-20T14:10:26;12.30;64.60
15298;DHT22;7750;48.796;9.026;2022-11-20T14:15:34;12.20;65.10
15298;DHT22;7750;48.796;9.026;2022-11-20T14:20:36;12.20;65.50
15298;DHT22;7750;48.796;9.026;2022-11-20T14:25:42;12.00;65.70
15298;DHT22;7750;48.796;9.026;2022-11-20T14:30:45;12.00;66.20
15298;DHT22;7750;48.796;9.026;2022-11-20T14:35:52;11.90;66.70
15298;DHT22;7750;48.796;9.026;2022-11-20T14:40:53;11.80;67.20
15298;DHT22;7750;48.796;9.026;2022-11-20T14:46:00;11.80;67.40
15298;DHT22;7750;48.796;9.026;2022-11-20T14:51:01;11.70;67.70
15298;DHT22;7750;48.796;9.026;2022-11-20T14:56:03;11.80;67.80
15298;DHT22;7750;48.796;9.026;2022-11-20T15:01:06;11.90;68.20
15298;DHT22;7750;48.796;9.026;2022-11-20T15:06:10;12.00;68.00
15298;DHT22;7750;48.796;9.026;2022-11-20T15:11:29;12.00;67.50
15298;DHT22;7750;48.796;9.026;2022-11-20T15:16:31;12.00;67.20
15298;DHT22;7750;48.796;9.026;2022-11-20T15:21:31;11.80;67.10
15298;DHT22;7750;48.796;9.026;2022-11-20T15:26:34;11.70;67.00
15298;DHT22;7750;48.796;9.026;2022-11-20T15:31:35;11.60;67.60
15298;DHT22;7750;48.796;9.026;2022-11-20T15:36:35;11.60;68.40
15298;DHT22;7750;48.796;9.026;2022-11-20T15:41:37;11.60;68.40
15298;DHT22;7750;48.796;9.026;2022-11-20T15:46:41;11.50;68.50
15298;DHT22;7750;48.796;9.026;2022-11-20T15:51:48;11.40;68.30
15298;DHT22;7750;48.796;9.026;2022-11-20T15:56:57;11.30;68.60
15298;DHT22;7750;48.796;9.026;2022-11-20T16:01:59;11.30;69.00
15298;DHT22;7750;48.796;9.026;2022-11-20T16:07:00;11.30;68.80
15298;DHT22;7750;48.796;9.026;2022-11-20T16:12:00;11.20;68.90
15298;DHT22;7750;48.796;9.026;2022-11-20T16:17:08;11.20;69.00
15298;DHT22;7750;48.796;9.026;2022-11-20T16:22:13;11.10;69.50
15298;DHT22;7750;48.796;9.026;2022-11-20T16:27:14;11.10;69.80
15298;DHT22;7750;48.796;9.026;2022-11-20T16:32:25;11.00;69.80
15298;DHT22;7750;48.796;9.026;2022-11-20T16:37:35;11.00;70.20
15298;DHT22;7750;48.796;9.026;2022-11-20T16:42:39;11.70;69.20
15298;DHT22;7750;48.796;9.026;2022-11-20T16:48:32;11.30;69.80
15298;DHT22;7750;48.796;9.026;2022-11-20T17:00:15;11.10;70.80
15298;DHT22;7750;48.796;9.026;2022-11-20T17:05:24;10.90;70.80
15298;DHT22;7750;48.796;9.026;2022-11-20T17:10:25;10.80;71.00
15298;DHT22;7750;48.796;9.026;2022-11-20T18:51:33;10.30;72.40
15298;DHT22;7750;48.796;9.026;2022-11-20T19:02:22;10.20;72.60
15298;DHT22;7750;48.796;9.026;2022-11-20T19:07:23;10.10;72.30
15298;DHT22;7750;48.796;9.026;2022-11-20T19:12:24;10.00;73.30
15298;DHT22;7750;48.796;9.026;2022-11-20T19:17:24;10.00;73.20
15298;DHT22;7750;48.796;9.026;2022-11-20T19:22:25;9.90;72.70
15298;DHT22;7750;48.796;9.026;2022-11-20T19:27:26;9.80;72.60
15298;DHT22;7750;48.796;9.026;2022-11-20T19:32:26;9.70;72.40
15298;DHT22;7750;48.796;9.026;2022-11-20T19:37:27;9.60;72.70
15298;DHT22;7750;48.796;9.026;2022-11-20T19:42:27;9.60;72.90
15298;DHT22;7750;48.796;9.026;2022-11-20T19:47:28;9.60;73.10
15298;DHT22;7750;48.796;9.026;2022-11-20T19:52:29;9.60;72.30
15298;DHT22;7750;48.796;9.026;2022-11-20T19:57:30;9.50;71.70
15298;DHT22;7750;48.796;9.026;2022-11-20T20:02:31;9.40;72.10
15298;DHT22;7750;48.796;9.026;2022-11-20T20:07:32;9.30;72.10
15298;DHT22;7750;48.796;9.026;2022-11-20T20:12:32;9.20;72.10
15298;DHT22;7750;48.796;9.026;2022-11-20T20:17:33;9.10;72.30
15298;DHT22;7750;48.796;9.026;2022-11-20T20:22:33;9.00;72.60
15298;DHT22;7750;48.796;9.026;2022-11-20T20:27:34;9.00;72.90
15298;DHT22;7750;48.796;9.026;2022-11-20T20:32:36;8.90;73.30
15298;DHT22;7750;48.796;9.026;2022-11-20T20:37:37;8.90;73.40
15298;DHT22;7750;48.796;9.026;2022-11-20T20:42:37;8.90;73.40
15298;DHT22;7750;48.796;9.026;2022-11-20T20:47:39;8.80;73.80
15298;DHT22;7750;48.796;9.026;2022-11-20T20:52:40;8.80;74.20
15298;DHT22;7750;48.796;9.026;2022-11-20T20:57:41;8.80;74.40
15298;DHT22;7750;48.796;9.026;2022-11-20T21:02:45;8.80;74.70
15298;DHT22;7750;48.796;9.026;2022-11-20T21:07:45;8.70;75.00
15298;DHT22;7750;48.796;9.026;2022-11-20T21:13:04;8.70;75.20
15298;DHT22;7750;48.796;9.026;2022-11-20T21:18:05;8.70;75.50
15298;DHT22;7750;48.796;9.026;2022-11-20T21:23:09;8.60;75.90
15298;DHT22;7750;48.796;9.026;2022-11-20T21:28:10;8.60;76.10
15298;DHT22;7750;48.796;9.026;2022-11-20T21:33:11;8.60;75.90
15298;DHT22;7750;48.796;9.026;2022-11-20T21:38:12;8.50;75.80
15298;DHT22;7750;48.796;9.026;2022-11-20T21:43:13;8.60;75.90
15298;DHT22;7750;48.796;9.026;2022-11-20T21:48:14;8.60;75.90
15298;DHT22;7750;48.796;9.026;2022-11-20T21:53:14;8.60;75.70
15298;DHT22;7750;48.796;9.026;2022-11-20T21:58:15;8.60;75.80
15298;DHT22;7750;48.796;9.026;2022-11-20T22:03:17;8.60;75.90
15298;DHT22;7750;48.796;9.026;2022-11-20T22:08:17;8.50;76.80
15298;DHT22;7750;48.796;9.026;2022-11-20T22:13:18;8.60;76.50
15298;DHT22;7750;48.796;9.026;2022-11-20T22:18:45;8.50;76.90
15298;DHT22;7750;48.796;9.026;2022-11-20T22:23:47;8.60;77.40
15298;DHT22;7750;48.796;9.026;2022-11-20T22:28:49;8.50;77.40
15298;DHT22;7750;48.796;9.026;2022-11-20T22:33:51;8.50;77.80
15298;DHT22;7750;48.796;9.026;2022-11-20T22:38:51;8.60;77.90
15298;DHT22;7750;48.796;9.026;2022-11-20T22:44:00;8.50;77.90
15298;DHT22;7750;48.796;9.026;2022-11-20T22:49:04;8.50;78.00
15298;DHT22;7750;48.796;9.026;2022-11-20T22:54:05;8.50;78.20
15298;DHT22;7750;48.796;9.026;2022-11-20T22:59:06;8.50;77.90
15298;DHT22;7750;48.796;9.026;2022-11-20T23:04:09;8.60;78.60
15298;DHT22;7750;48.796;9.026;2022-11-20T23:09:10;8.50;78.10
15298;DHT22;7750;48.796;9.026;2022-11-20T23:14:13;8.60;78.20
15298;DHT22;7750;48.796;9.026;2022-11-20T23:19:14;8.50;77.90
15298;DHT22;7750;48.796;9.026;2022-11-20T23:24:15;8.60;78.20
15298;DHT22;7750;48.796;9.026;2022-11-20T23:29:16;8.50;78.30
15298;DHT22;7750;48.796;9.026;2022-11-20T23:34:16;8.50;78.20
15298;DHT22;7750;48.796;9.026;2022-11-20T23:39:17;8.50;78.10
15298;DHT22;7750;48.796;9.026;2022-11-20T23:44:18;8.60;78.10
15298;DHT22;7750;48.796;9.026;2022-11-20T23:49:18;8.60;78.20
15298;DHT22;7750;48.796;9.026;2022-11-20T23:54:19;8.60;78.40
15298;DHT22;7750;48.796;9.026;2022-11-20T23:59:19;8.60;78.50
